Time;durP1;ratioP1;P1;durP2;ratioP2;P2;SDS_P1;SDS_P2;PMS_P1;PMS_P2;Temp;Humidity;BMP_temperature;BMP_pressure;BME280_temperature;BME280_humidity;BME280_pressure;Samples;Min_cycle;Max_cycle;Signal;HPM_P1;HPM_P2
2022/03/16 00:01:22;;;;;;;7.97;4.70;;;;;;;9.95;58.92;102567.44;2072808;28;20447;-80
2022/03/16 00:02:43;;;;;;;6.63;3.53;;;;;;;9.96;58.89;102570.97;2064198;28;20050;-80
2022/03/16 00:04:06;;;;;;;7.00;3.20;;;;;;;9.94;59.07;102581.44;2060074;28;20129;-80
2022/03/16 00:05:28;;;;;;;8.70;3.28;;;;;;;9.92;59.28;102583.09;2059810;28;20062;-80
2022/03/16 00:06:50;;;;;;;19.55;8.18;;;;;;;9.95;59.22;102590.28;2073345;28;20084;-80
2022/03/16 00:08:12;;;;;;;10.63;4.85;;;;;;;9.95;59.29;102595.53;2076249;28;20041;-80
2022/03/16 00:09:35;;;;;;;11.85;4.30;;;;;;;9.95;59.17;102591.19;2079268;28;20057;-80
2022/03/16 00:10:57;;;;;;;9.00;4.63;;;;;;;9.97;59.21;102580.72;2069430;28;20052;-80
2022/03/16 00:12:20;;;;;;;10.40;4.57;;;;;;;9.98;59.30;102586.03;2085120;28;20049;-80
2022/03/16 00:13:43;;;;;;;9.23;4.57;;;;;;;9.98;59.28;102577.22;2081588;28;20163;-80
2022/03/16 00:15:07;;;;;;;8.68;3.88;;;;;;;9.98;59.29;102587.75;2071008;28;20097;-80
2022/03/16 00:16:29;;;;;;;8.88;4.15;;;;;;;9.95;59.54;102574.44;2071990;28;20426;-79
2022/03/16 00:17:52;;;;;;;13.88;5.80;;;;;;;9.95;59.52;102572.72;2070378;28;20145;-79
2022/03/16 00:19:14;;;;;;;9.77;4.90;;;;;;;9.95;59.26;102575.34;2068312;28;20077;-79
2022/03/16 00:20:36;;;;;;;10.95;5.63;;;;;;;9.96;59.25;102574.53;2076286;28;20047;-80
2022/03/16 00:22:00;;;;;;;8.30;4.32;;;;;;;9.97;59.56;102570.16;2068551;28;20066;-80
2022/03/16 00:23:23;;;;;;;8.73;6.00;;;;;;;9.98;59.49;102571.94;2084777;28;20077;-80
2022/03/16 00:24:46;;;;;;;15.10;6.57;;;;;;;9.98;59.42;102574.56;2081769;28;20099;-80
2022/03/16 00:26:09;;;;;;;11.48;4.80;;;;;;;9.98;59.50;102577.22;2057367;28;20046;-80
2022/03/16 00:27:31;;;;;;;27.30;10.27;;;;;;;9.99;59.40;102566.72;2068769;28;20451;-80
2022/03/16 00:28:54;;;;;;;17.60;8.02;;;;;;;9.99;59.50;102577.28;2067531;28;20046;-80
2022/03/16 00:30:17;;;;;;;16.92;8.60;;;;;;;10.02;59.48;102570.34;2068213;28;20139;-79
2022/03/16 00:31:38;;;;;;;40.05;16.98;;;;;;;10.00;59.36;102571.19;2083023;28;21017;-79
2022/03/16 00:33:01;;;;;;;31.15;14.73;;;;;;;9.98;59.40;102575.47;2073399;28;20157;-80
2022/03/16 00:34:23;;;;;;;21.88;9.15;;;;;;;9.97;59.53;102570.16;2069385;28;20050;-79
2022/03/16 00:35:46;;;;;;;19.98;10.77;;;;;;;9.97;59.47;102575.44;2072233;28;20495;-79
2022/03/16 00:37:08;;;;;;;15.77;9.25;;;;;;;9.97;59.37;102576.34;2072758;28;20555;-80
2022/03/16 00:38:30;;;;;;;17.90;10.15;;;;;;;9.97;59.33;102565.78;2083310;28;20037;-79
2022/03/16 00:39:52;;;;;;;26.55;14.80;;;;;;;9.95;59.43;102564.78;2073709;28;20065;-79
2022/03/16 00:41:14;;;;;;;12.18;5.30;;;;;;;9.94;59.51;102560.34;2077595;28;20069;-79
2022/03/16 00:42:38;;;;;;;12.07;7.28;;;;;;;9.94;59.53;102555.06;2078905;28;20489;-80
2022/03/16 00:44:01;;;;;;;11.57;6.03;;;;;;;9.93;59.40;102562.91;2071075;28;20731;-80
2022/03/16 00:45:24;;;;;;;10.18;5.03;;;;;;;9.91;59.36;102557.53;2067905;28;20053;-80
2022/03/16 00:46:47;;;;;;;6.72;3.88;;;;;;;9.89;59.40;102548.69;2057160;28;20035;-79
2022/03/16 00:48:10;;;;;;;8.05;4.88;;;;;;;9.90;59.34;102553.13;2062976;28;20061;-79
2022/03/16 00:49:31;;;;;;;8.73;4.47;;;;;;;9.89;59.58;102558.31;2060135;28;20137;-79
2022/03/16 00:50:54;;;;;;;11.68;5.60;;;;;;;9.86;59.28;102559.06;2068142;28;20060;-80
2022/03/16 00:52:17;;;;;;;9.38;5.50;;;;;;;9.86;59.41;102561.72;2064450;28;20050;-79
2022/03/16 00:53:40;;;;;;;7.32;4.55;;;;;;;9.84;59.24;102546.66;2084254;28;20045;-79
2022/03/16 00:55:03;;;;;;;8.88;4.00;;;;;;;9.86;59.22;102552.91;2069652;28;20045;-79
2022/03/16 00:56:25;;;;;;;8.30;3.08;;;;;;;9.86;59.24;102551.16;2070554;28;20045;-79
2022/03/16 00:57:49;;;;;;;8.55;4.15;;;;;;;9.86;59.36;102539.69;2076415;28;20136;-79
2022/03/16 00:59:10;;;;;;;9.90;4.50;;;;;;;9.88;59.34;102549.50;2074245;28;20054;-79
2022/03/16 01:00:33;;;;;;;10.88;3.97;;;;;;;9.89;59.13;102550.41;2068340;28;20062;-79
2022/03/16 01:01:54;;;;;;;7.45;3.28;;;;;;;9.87;59.22;102538.88;2074834;28;20053;-80
2022/03/16 01:03:17;;;;;;;6.57;3.25;;;;;;;9.88;59.35;102541.59;2069340;28;20061;-80
2022/03/16 01:04:41;;;;;;;9.25;4.30;;;;;;;9.89;59.27;102545.13;2070891;28;20053;-79
2022/03/16 01:06:04;;;;;;;8.93;5.00;;;;;;;9.89;59.27;102531.94;2073947;28;20049;-80
2022/03/16 01:07:27;;;;;;;12.40;5.30;;;;;;;9.89;59.25;102537.22;2059554;28;20054;-79
2022/03/16 01:08:50;;;;;;;11.02;5.60;;;;;;;9.87;59.14;102531.88;2073505;28;20100;-79
2022/03/16 01:10:13;;;;;;;16.02;7.75;;;;;;;9.87;59.12;102533.59;2064991;28;20137;-79
2022/03/16 01:11:36;;;;;;;14.25;7.15;;;;;;;9.88;59.11;102538.06;2072794;28;20192;-79
2022/03/16 01:13:00;;;;;;;12.07;5.50;;;;;;;9.87;59.33;102526.59;2063556;28;20050;-80
2022/03/16 01:14:22;;;;;;;11.02;5.28;;;;;;;9.86;59.30;102518.59;2067299;28;20132;-79
2022/03/16 01:15:45;;;;;;;9.15;4.05;;;;;;;9.85;59.08;102527.34;2066432;28;20061;-79
2022/03/16 01:17:07;;;;;;;7.13;3.53;;;;;;;9.84;59.24;102520.28;2077557;28;20541;-79
2022/03/16 01:18:30;;;;;;;6.03;3.35;;;;;;;9.80;59.37;102524.50;2069918;28;20038;-79
2022/03/16 01:19:52;;;;;;;6.03;3.22;;;;;;;9.78;59.34;102525.28;2070208;28;20042;-80
2022/03/16 01:21:15;;;;;;;4.75;3.13;;;;;;;9.74;59.25;102518.03;2075839;28;20140;-80
2022/03/16 01:22:38;;;;;;;6.57;2.75;;;;;;;9.71;59.23;102526.72;2069076;28;20046;-80
2022/03/16 01:24:00;;;;;;;9.77;4.65;;;;;;;9.70;59.56;102521.38;2062665;28;20061;-80
2022/03/16 01:25:23;;;;;;;7.80;3.30;;;;;;;9.66;59.50;102519.41;2075895;28;20123;-81
2022/03/16 01:26:44;;;;;;;7.20;3.45;;;;;;;9.66;59.40;102519.41;2074194;28;20549;-80
2022/03/16 01:28:09;;;;;;;5.75;3.10;;;;;;;9.63;59.67;102516.63;2062493;28;20081;-80
2022/03/16 01:29:32;;;;;;;5.97;2.78;;;;;;;9.61;59.72;102508.63;2070597;28;20069;-80
2022/03/16 01:30:54;;;;;;;9.85;3.10;;;;;;;9.56;59.60;102512.78;2076525;28;20603;-80
2022/03/16 01:32:18;;;;;;;7.70;3.03;;;;;;;9.51;59.69;102504.69;2070310;28;20054;-80
2022/03/16 01:33:40;;;;;;;8.65;3.10;;;;;;;9.49;59.67;102503.69;2064494;28;20054;-80
2022/03/16 01:35:03;;;;;;;9.63;3.53;;;;;;;9.51;59.91;102499.41;2075940;28;20145;-80
2022/03/16 01:36:25;;;;;;;9.18;3.08;;;;;;;9.50;59.76;102500.22;2070416;28;20080;-80
2022/03/16 01:37:48;;;;;;;8.32;3.38;;;;;;;9.46;60.06;102500.00;2073683;28;20072;-79
2022/03/16 01:39:11;;;;;;;9.65;3.63;;;;;;;9.46;59.86;102495.63;2070149;28;20053;-80
2022/03/16 01:40:34;;;;;;;7.43;3.42;;;;;;;9.46;59.90;102493.00;2067564;28;20521;-80
2022/03/16 01:41:55;;;;;;;7.00;2.78;;;;;;;9.45;60.06;102491.19;2067481;28;20490;-79
2022/03/16 01:43:19;;;;;;;7.78;3.38;;;;;;;9.45;60.14;102493.81;2061734;28;20061;-80
2022/03/16 01:44:43;;;;;;;8.57;2.95;;;;;;;9.45;60.07;102480.63;2066358;28;20120;-80
2022/03/16 01:46:06;;;;;;;6.78;3.17;;;;;;;9.44;59.99;102478.84;2083741;28;20090;-79
2022/03/16 01:47:29;;;;;;;8.40;3.10;;;;;;;9.43;60.13;102473.50;2070850;28;20058;-80
2022/03/16 01:48:52;;;;;;;7.28;3.17;;;;;;;9.40;60.15;102476.88;2059514;28;20061;-79
2022/03/16 01:50:15;;;;;;;6.57;3.15;;;;;;;9.35;60.10;102477.50;2073994;28;20095;-79
2022/03/16 01:51:38;;;;;;;7.40;3.28;;;;;;;9.37;60.09;102468.84;2069627;28;20141;-79
2022/03/16 01:53:00;;;;;;;7.70;2.85;;;;;;;9.38;60.23;102478.56;2065857;28;20137;-80
2022/03/16 01:54:23;;;;;;;5.53;3.08;;;;;;;9.38;60.25;102481.19;2069569;28;20038;-80
2022/03/16 01:55:45;;;;;;;11.57;3.22;;;;;;;9.35;60.45;102475.75;2069951;28;20050;-79
2022/03/16 01:57:07;;;;;;;8.63;3.33;;;;;;;9.34;60.27;102473.03;2075375;28;20046;-78
2022/03/16 01:58:31;;;;;;;;;;;;;;;9.34;60.53;102471.31;2062202;28;20041;-78
2022/03/16 01:59:57;;;;;;;10.52;4.50;;;;;;;9.33;60.34;102468.59;2059606;28;19926;-78
2022/03/16 02:01:20;;;;;;;7.25;3.40;;;;;;;9.34;60.64;102470.41;2059558;28;20046;-78
2022/03/16 02:02:43;;;;;;;6.50;2.97;;;;;;;9.31;60.66;102463.28;2082231;28;20105;-79
2022/03/16 02:04:08;;;;;;;9.48;3.92;;;;;;;9.30;60.85;102469.38;2069615;28;20460;-78
2022/03/16 02:05:30;;;;;;;7.57;2.70;;;;;;;9.28;60.92;102462.22;2067444;28;20037;-79
2022/03/16 02:06:52;;;;;;;6.93;3.28;;;;;;;9.26;61.01;102470.03;2069909;28;20088;-79
2022/03/16 02:08:14;;;;;;;5.20;2.67;;;;;;;9.27;61.29;102474.50;2072713;28;20048;-79
2022/03/16 02:09:36;;;;;;;7.22;3.45;;;;;;;9.27;61.24;102479.75;2076896;28;20038;-79
2022/03/16 02:10:58;;;;;;;7.35;2.72;;;;;;;9.29;61.15;102483.38;2077212;28;20420;-78
2022/03/16 02:12:22;;;;;;;7.82;2.75;;;;;;;9.31;61.44;102488.72;2072242;28;20137;-78
2022/03/16 02:13:48;;;;;;;8.20;3.53;;;;;;;9.34;61.09;102484.50;2073281;28;20045;-79
2022/03/16 02:15:11;;;;;;;8.65;4.00;;;;;;;9.36;61.24;102474.94;2076730;28;20099;-79
2022/03/16 02:16:35;;;;;;;8.18;3.80;;;;;;;9.31;61.41;102475.56;2061690;28;20042;-79
2022/03/16 02:17:58;;;;;;;10.20;4.07;;;;;;;9.29;61.60;102475.47;2076124;28;20037;-79
2022/03/16 02:19:19;;;;;;;10.18;3.53;;;;;;;9.37;61.35;102484.66;2064180;28;20145;-79
2022/03/16 02:20:42;;;;;;;7.40;3.22;;;;;;;9.43;61.24;102478.78;2066984;28;20092;-80
2022/03/16 02:22:07;;;;;;;8.00;3.53;;;;;;;9.45;61.44;102478.00;2075664;28;20049;-80
2022/03/16 02:23:31;;;;;;;11.38;4.07;;;;;;;9.44;61.46;102478.84;2072666;28;20034;-80
2022/03/16 02:24:54;;;;;;;12.48;4.15;;;;;;;9.38;61.51;102470.66;2076626;28;20045;-80
2022/03/16 02:26:15;;;;;;;9.70;4.57;;;;;;;9.39;61.59;102472.44;2075079;28;20064;-80
2022/03/16 02:27:41;;;;;;;6.53;3.30;;;;;;;9.39;61.63;102475.06;2067384;28;20042;-80
2022/03/16 02:29:03;;;;;;;8.90;3.35;;;;;;;9.40;61.67;102475.97;2067953;28;20037;-80
2022/03/16 02:30:28;;;;;;;7.03;3.88;;;;;;;9.44;61.70;102483.22;2060273;28;20057;-80
2022/03/16 02:31:51;;;;;;;8.32;3.03;;;;;;;9.45;61.72;102479.75;2079960;28;20126;-81
2022/03/16 02:33:13;;;;;;;11.32;3.58;;;;;;;9.48;61.93;102482.53;2080440;28;20053;-80
2022/03/16 02:34:36;;;;;;;8.10;3.45;;;;;;;9.53;61.88;102481.91;2081050;28;20046;-80
2022/03/16 02:35:58;;;;;;;8.07;3.60;;;;;;;9.57;61.70;102473.34;2053262;28;20042;-80
2022/03/16 02:37:21;;;;;;;8.75;3.15;;;;;;;9.58;61.54;102477.75;2059989;28;20034;-80
2022/03/16 02:38:45;;;;;;;11.95;4.88;;;;;;;9.62;61.81;102480.53;2059433;28;20050;-80
2022/03/16 02:40:10;;;;;;;5.40;2.83;;;;;;;9.66;61.67;102474.56;2077469;28;20094;-80
2022/03/16 02:41:33;;;;;;;7.88;2.70;;;;;;;9.71;61.75;102475.72;2067413;28;20057;-80
2022/03/16 02:42:56;;;;;;;8.73;3.25;;;;;;;9.73;61.64;102485.47;2067408;28;20046;-80
2022/03/16 02:44:17;;;;;;;12.40;3.60;;;;;;;9.73;61.58;102479.31;2081852;28;20049;-80
2022/03/16 02:45:40;;;;;;;8.00;2.97;;;;;;;9.69;61.67;102473.00;2078255;28;20049;-80
2022/03/16 02:47:01;;;;;;;7.15;3.33;;;;;;;9.68;61.88;102473.81;2069296;28;20536;-80
2022/03/16 02:48:24;;;;;;;6.32;3.05;;;;;;;9.67;61.77;102468.47;2074618;28;20053;-80
2022/03/16 02:49:46;;;;;;;9.15;4.25;;;;;;;9.65;61.98;102470.16;2071492;28;20054;-81
2022/03/16 02:51:09;;;;;;;7.70;4.13;;;;;;;9.62;61.93;102464.72;2060158;28;20042;-80
2022/03/16 02:52:31;;;;;;;8.23;4.30;;;;;;;9.59;61.99;102460.19;2069330;28;20037;-80
2022/03/16 02:53:56;;;;;;;11.23;4.53;;;;;;;9.58;62.11;102451.38;2065851;28;20054;-80
2022/03/16 02:55:18;;;;;;;9.65;4.20;;;;;;;9.56;62.20;102446.88;2075304;28;20072;-80
2022/03/16 02:56:39;;;;;;;7.15;2.97;;;;;;;9.54;62.15;102452.09;2077831;28;20033;-80
2022/03/16 02:58:02;;;;;;;5.57;2.58;;;;;;;9.52;62.10;102451.09;2085947;28;20507;-81
2022/03/16 02:59:23;;;;;;;7.93;2.97;;;;;;;9.51;62.10;102457.22;2072145;28;20054;-80
2022/03/16 03:00:46;;;;;;;7.45;2.72;;;;;;;9.51;62.20;102456.31;2069540;28;20109;-80
2022/03/16 03:02:10;;;;;;;6.15;2.97;;;;;;;9.51;62.34;102461.59;2069376;28;20216;-79
2022/03/16 03:03:33;;;;;;;9.15;4.30;;;;;;;9.50;62.20;102460.69;2075841;28;20045;-80
2022/03/16 03:04:55;;;;;;;8.23;3.45;;;;;;;9.48;62.39;102453.53;2088430;28;20057;-79
2022/03/16 03:06:17;;;;;;;10.20;3.45;;;;;;;9.46;62.47;102457.81;2076187;28;20054;-79
2022/03/16 03:07:39;;;;;;;9.73;4.25;;;;;;;9.44;62.37;102454.22;2062702;28;20057;-80
2022/03/16 03:09:04;;;;;;;7.35;2.80;;;;;;;9.41;62.49;102454.97;2060369;28;20042;-80
2022/03/16 03:10:26;;;;;;;6.10;3.15;;;;;;;9.39;62.34;102448.72;2075069;28;20041;-80
2022/03/16 03:11:49;;;;;;;5.50;2.65;;;;;;;9.34;62.57;102447.59;2061559;28;20050;-80
2022/03/16 03:13:11;;;;;;;7.38;2.67;;;;;;;9.30;62.79;102447.38;2065102;28;20061;-80
2022/03/16 03:14:34;;;;;;;6.78;3.17;;;;;;;9.28;62.74;102449.03;2074132;28;20041;-80
2022/03/16 03:15:57;;;;;;;6.28;2.67;;;;;;;9.26;62.79;102441.06;2067464;28;20145;-80
2022/03/16 03:17:18;;;;;;;7.38;2.75;;;;;;;9.26;63.00;102446.31;2074952;28;20061;-80
2022/03/16 03:18:41;;;;;;;8.60;2.80;;;;;;;9.26;62.92;102448.97;2061135;28;20069;-80
2022/03/16 03:20:02;;;;;;;7.72;3.17;;;;;;;9.27;62.97;102448.13;2079297;28;20494;-80
2022/03/16 03:21:27;;;;;;;5.70;3.05;;;;;;;9.30;62.96;102442.13;2074865;28;20124;-80
2022/03/16 03:22:50;;;;;;;9.88;3.97;;;;;;;9.32;62.90;102443.09;2077212;28;20046;-78
2022/03/16 03:24:13;;;;;;;8.77;3.08;;;;;;;9.30;62.79;102440.38;2077333;28;20049;-79
2022/03/16 03:25:36;;;;;;;6.45;2.95;;;;;;;9.27;62.81;102445.50;2080401;28;20091;-79
2022/03/16 03:26:58;;;;;;;9.38;3.55;;;;;;;9.20;62.79;102446.03;2069783;28;20068;-78
2022/03/16 03:28:20;;;;;;;5.68;3.10;;;;;;;9.18;63.10;102442.44;2066451;28;20053;-79
2022/03/16 03:29:42;;;;;;;5.70;2.45;;;;;;;9.19;63.12;102449.50;2058612;28;20130;-79
2022/03/16 03:31:04;;;;;;;7.65;3.60;;;;;;;9.20;63.21;102448.66;2056696;28;21134;-78
2022/03/16 03:32:26;;;;;;;7.15;3.55;;;;;;;9.18;63.02;102451.25;2066851;28;20053;-78
2022/03/16 03:33:49;;;;;;;9.98;4.63;;;;;;;9.15;63.09;102455.44;2077760;28;20081;-78
2022/03/16 03:35:10;;;;;;;7.93;3.83;;;;;;;9.14;63.22;102466.81;2070785;28;20054;-79
2022/03/16 03:36:33;;;;;;;9.57;4.68;;;;;;;9.17;63.25;102462.63;2073451;28;20136;-78
2022/03/16 03:37:54;;;;;;;12.00;5.57;;;;;;;9.18;63.03;102466.16;2060395;28;20141;-78
2022/03/16 03:39:18;;;;;;;11.65;5.35;;;;;;;9.18;62.97;102458.25;2074996;28;20053;-78
2022/03/16 03:40:41;;;;;;;10.25;5.60;;;;;;;9.18;62.77;102474.06;2088462;28;20044;-79
2022/03/16 03:42:04;;;;;;;6.75;4.10;;;;;;;9.15;62.98;102472.16;2078908;28;20497;-78
2022/03/16 03:43:26;;;;;;;8.63;4.47;;;;;;;9.10;63.04;102467.50;2075913;28;20053;-78
2022/03/16 03:44:48;;;;;;;7.60;4.53;;;;;;;9.09;63.43;102473.59;2078922;28;20051;-79
2022/03/16 03:46:10;;;;;;;7.25;4.28;;;;;;;9.18;63.20;102471.44;2077797;28;20045;-78
2022/03/16 03:47:33;;;;;;;11.52;4.43;;;;;;;9.27;63.11;102463.03;2081700;28;20128;-79
2022/03/16 03:48:55;;;;;;;6.32;4.43;;;;;;;9.34;62.81;102457.25;2087203;28;20153;-78
2022/03/16 03:50:17;;;;;;;6.00;3.58;;;;;;;9.38;62.76;102465.38;2080888;28;20176;-79
2022/03/16 03:51:40;;;;;;;10.90;5.07;;;;;;;9.38;62.68;102467.13;2069429;28;20486;-79
2022/03/16 03:53:01;;;;;;;16.00;5.68;;;;;;;9.39;62.63;102469.78;2062777;28;20058;-79
2022/03/16 03:54:25;;;;;;;9.57;3.80;;;;;;;9.33;62.89;102472.16;2068289;28;20092;-79
2022/03/16 03:55:47;;;;;;;15.25;6.88;;;;;;;9.29;63.05;102470.19;2076124;28;20041;-79
2022/03/16 03:57:09;;;;;;;9.27;4.60;;;;;;;9.33;62.92;102464.22;2070366;28;20062;-80
2022/03/16 03:58:31;;;;;;;12.07;4.93;;;;;;;9.37;63.11;102460.03;2076180;28;20481;-79
2022/03/16 03:59:53;;;;;;;9.02;3.90;;;;;;;9.36;62.91;102461.75;2066758;28;20054;-79
2022/03/16 04:01:16;;;;;;;5.43;3.05;;;;;;;9.37;62.81;102468.84;2075238;28;20097;-79
2022/03/16 04:02:37;;;;;;;13.70;6.18;;;;;;;9.37;62.70;102467.94;2071053;28;20049;-79
2022/03/16 04:04:00;;;;;;;13.50;7.00;;;;;;;9.36;62.82;102469.66;2062586;28;20398;-79
2022/03/16 04:05:21;;;;;;;8.43;4.50;;;;;;;9.34;62.67;102465.13;2074307;28;20136;-80
2022/03/16 04:06:44;;;;;;;8.75;3.90;;;;;;;9.28;62.83;102465.75;2065720;28;20134;-80
2022/03/16 04:08:06;;;;;;;10.25;3.80;;;;;;;9.22;62.72;102461.91;2058962;28;20080;-80
2022/03/16 04:09:29;;;;;;;8.25;4.03;;;;;;;9.16;62.83;102468.72;2082329;28;20106;-79
2022/03/16 04:10:52;;;;;;;10.48;4.00;;;;;;;9.12;62.95;102461.47;2074383;28;20089;-80
2022/03/16 04:12:14;;;;;;;4.15;2.33;;;;;;;9.08;63.25;102459.53;2071921;28;20073;-79
2022/03/16 04:13:37;;;;;;;5.28;2.33;;;;;;;9.02;63.49;102458.31;2079234;28;20052;-77
2022/03/16 04:15:00;;;;;;;4.95;3.03;;;;;;;8.96;63.69;102447.47;2078260;28;20059;-78
2022/03/16 04:16:22;;;;;;;6.57;2.88;;;;;;;8.95;63.42;102450.94;2072686;28;20057;-77
2022/03/16 04:17:44;;;;;;;8.82;3.58;;;;;;;8.90;63.80;102453.34;2070856;28;20062;-77
2022/03/16 04:19:07;;;;;;;6.80;4.00;;;;;;;8.88;63.73;102455.00;2070342;28;20054;-78
2022/03/16 04:20:30;;;;;;;5.00;2.20;;;;;;;8.85;63.96;102457.50;2067402;28;20405;-79
2022/03/16 04:21:53;;;;;;;7.95;3.22;;;;;;;8.83;63.94;102450.34;2074685;28;20380;-79
2022/03/16 04:23:14;;;;;;;5.72;2.95;;;;;;;8.84;63.69;102458.31;2070160;28;20050;-80
2022/03/16 04:24:39;;;;;;;5.47;2.95;;;;;;;8.87;63.84;102454.91;2073769;28;20401;-80
2022/03/16 04:26:01;;;;;;;7.45;3.00;;;;;;;8.87;63.83;102453.19;2086930;28;20568;-80
2022/03/16 04:27:25;;;;;;;17.40;5.05;;;;;;;8.87;63.68;102452.28;2073456;28;20184;-80
2022/03/16 04:28:47;;;;;;;7.22;3.08;;;;;;;8.87;63.78;102450.56;2068450;28;20592;-78
2022/03/16 04:30:10;;;;;;;13.27;5.32;;;;;;;8.88;63.68;102447.09;2071330;28;20042;-78
2022/03/16 04:31:32;;;;;;;5.55;3.17;;;;;;;8.90;63.71;102453.34;2073044;28;20060;-78
2022/03/16 04:32:55;;;;;;;15.02;6.18;;;;;;;8.90;63.71;102441.91;2078161;28;20617;-79
2022/03/16 04:34:16;;;;;;;11.55;4.82;;;;;;;8.90;63.74;102441.91;2078294;28;20049;-80
2022/03/16 04:35:39;;;;;;;11.07;5.05;;;;;;;8.90;63.69;102448.09;2070549;28;20045;-80
2022/03/16 04:37:02;;;;;;;9.48;3.80;;;;;;;8.92;63.66;102440.28;2069342;28;20054;-80
2022/03/16 04:38:25;;;;;;;7.60;3.22;;;;;;;8.90;63.39;102437.56;2054782;28;20051;-80
2022/03/16 04:39:49;;;;;;;7.10;4.00;;;;;;;8.91;63.26;102444.63;2069227;28;20041;-79
2022/03/16 04:41:12;;;;;;;7.40;4.40;;;;;;;8.89;63.48;102446.28;2062633;28;20051;-80
2022/03/16 04:42:35;;;;;;;11.48;5.72;;;;;;;8.87;63.17;102442.66;2066587;28;20034;-80
2022/03/16 04:43:57;;;;;;;10.23;4.63;;;;;;;8.84;63.32;102444.25;2070021;28;20128;-80
2022/03/16 04:45:20;;;;;;;7.72;3.53;;;;;;;8.78;63.57;102448.38;2052132;28;20376;-80
2022/03/16 04:46:42;;;;;;;8.40;3.88;;;;;;;8.75;63.62;102444.69;2049280;28;20083;-81
2022/03/16 04:48:07;;;;;;;9.95;3.30;;;;;;;8.77;63.64;102440.41;2060431;28;20054;-81
2022/03/16 04:49:30;;;;;;;5.07;2.45;;;;;;;8.74;63.47;102443.78;2050155;28;20054;-81
2022/03/16 04:50:52;;;;;;;8.48;3.22;;;;;;;8.75;63.48;102442.97;2057622;28;20043;-81
2022/03/16 04:52:15;;;;;;;5.88;2.72;;;;;;;8.77;63.62;102440.41;2055727;28;20047;-80
2022/03/16 04:53:38;;;;;;;6.10;3.22;;;;;;;8.83;63.51;102437.16;2060172;28;20042;-81
2022/03/16 04:55:02;;;;;;;7.85;3.60;;;;;;;8.88;63.66;102441.84;2056034;28;20113;-81
2022/03/16 04:56:25;;;;;;;10.25;3.35;;;;;;;8.98;63.61;102446.75;2066223;28;20107;-80
2022/03/16 04:57:47;;;;;;;6.13;3.38;;;;;;;9.10;63.67;102443.78;2065159;28;20117;-80
2022/03/16 04:59:10;;;;;;;6.70;3.15;;;;;;;9.22;63.66;102438.22;2062437;28;20097;-80
2022/03/16 05:00:34;;;;;;;7.82;3.95;;;;;;;9.34;63.47;102437.06;2050807;28;20565;-81
2022/03/16 05:01:56;;;;;;;5.95;2.63;;;;;;;9.46;63.34;102429.72;2058007;28;20046;-80
2022/03/16 05:03:19;;;;;;;5.57;2.33;;;;;;;9.59;63.07;102428.56;2054449;28;20078;-80
2022/03/16 05:04:42;;;;;;;5.60;2.75;;;;;;;9.71;62.98;102438.78;2056382;28;20104;-80
2022/03/16 05:06:05;;;;;;;9.63;3.35;;;;;;;9.82;62.77;102434.91;2059963;28;20062;-81
2022/03/16 05:07:26;;;;;;;10.23;3.65;;;;;;;9.92;62.86;102440.66;2074164;28;20456;-81
2022/03/16 05:08:50;;;;;;;24.13;10.02;;;;;;;10.01;62.57;102440.16;2072903;28;20076;-81
2022/03/16 05:10:14;;;;;;;11.93;5.70;;;;;;;10.07;62.28;102442.19;2062858;28;20054;-81
2022/03/16 05:11:40;;;;;;;10.60;5.22;;;;;;;10.08;62.48;102441.34;2066549;28;20504;-80
2022/03/16 05:13:03;;;;;;;14.45;5.78;;;;;;;10.14;62.19;102444.25;2058891;28;20046;-81
2022/03/16 05:14:25;;;;;;;9.40;4.18;;;;;;;10.23;62.36;102442.97;2064104;28;20409;-80
2022/03/16 05:15:48;;;;;;;8.90;4.07;;;;;;;10.36;62.26;102440.03;2077137;28;20049;-81
2022/03/16 05:17:12;;;;;;;6.72;3.03;;;;;;;10.47;62.19;102442.22;2058067;28;20138;-80
2022/03/16 05:18:34;;;;;;;7.25;2.85;;;;;;;10.59;62.03;102451.56;2059937;28;20053;-81
2022/03/16 05:19:57;;;;;;;5.95;3.72;;;;;;;10.73;61.88;102447.78;2059133;28;20088;-81
2022/03/16 05:21:19;;;;;;;8.40;3.40;;;;;;;10.89;61.55;102451.06;2067190;28;20042;-81
2022/03/16 05:22:43;;;;;;;6.22;3.13;;;;;;;11.04;61.33;102460.50;2062261;28;20046;-80
2022/03/16 05:24:06;;;;;;;7.95;3.22;;;;;;;11.20;61.15;102456.75;2076342;28;20061;-80
2022/03/16 05:25:31;;;;;;;6.70;2.25;;;;;;;11.29;61.06;102459.75;2072318;28;20449;-80
2022/03/16 05:26:54;;;;;;;5.07;2.35;;;;;;;11.32;60.84;102458.97;2054206;28;20053;-80
2022/03/16 05:28:16;;;;;;;7.30;2.90;;;;;;;11.44;60.70;102462.09;2056038;28;20043;-81
2022/03/16 05:29:39;;;;;;;5.82;2.35;;;;;;;11.55;60.45;102466.97;2061106;28;20597;-80
2022/03/16 05:31:00;;;;;;;6.00;2.58;;;;;;;11.67;60.54;102460.38;2069336;28;20046;-81
2022/03/16 05:32:23;;;;;;;5.45;2.75;;;;;;;11.77;60.30;102460.78;2072725;28;20162;-80
2022/03/16 05:33:45;;;;;;;5.82;2.85;;;;;;;11.90;60.18;102467.44;2069788;28;20144;-81
2022/03/16 05:35:08;;;;;;;7.13;2.78;;;;;;;11.87;59.57;102465.59;2069394;28;20440;-81
2022/03/16 05:36:31;;;;;;;7.03;2.63;;;;;;;11.82;59.64;102483.03;2075412;28;20053;-81
2022/03/16 05:37:52;;;;;;;8.00;3.55;;;;;;;11.75;59.53;102454.53;2077948;28;20037;-79
2022/03/16 05:39:15;;;;;;;4.97;2.53;;;;;;;11.76;59.00;102476.59;2078106;28;20054;-80
2022/03/16 05:40:39;;;;;;;4.75;2.38;;;;;;;11.81;58.81;102470.66;2062166;28;20065;-81
2022/03/16 05:42:02;;;;;;;7.55;3.67;;;;;;;11.78;58.63;102473.19;2067703;28;20394;-80
2022/03/16 05:43:24;;;;;;;6.55;2.25;;;;;;;11.78;58.56;102474.94;2064449;28;20046;-78
2022/03/16 05:44:47;;;;;;;10.20;2.90;;;;;;;11.77;58.71;102467.81;2071626;28;20412;-80
2022/03/16 05:46:10;;;;;;;12.63;6.47;;;;;;;11.86;58.77;102479.69;2085821;28;20572;-81
2022/03/16 05:47:33;;;;;;;9.48;3.03;;;;;;;11.98;58.72;102474.84;2064697;28;20481;-80
2022/03/16 05:48:55;;;;;;;4.85;2.63;;;;;;;12.05;58.70;102475.97;2059790;28;20042;-80
2022/03/16 05:50:18;;;;;;;4.07;2.40;;;;;;;12.11;58.47;102476.19;2051479;28;20455;-80
2022/03/16 05:51:41;;;;;;;62.65;28.35;;;;;;;12.08;58.36;102478.72;2067221;28;20069;-81
2022/03/16 05:53:04;;;;;;;9.75;4.93;;;;;;;12.05;58.34;102483.00;2083758;28;20048;-80
2022/03/16 05:54:27;;;;;;;8.65;4.53;;;;;;;12.00;58.28;102481.94;2072742;28;20037;-80
2022/03/16 05:55:51;;;;;;;8.27;3.88;;;;;;;11.91;58.16;102485.13;2075669;28;20517;-80
2022/03/16 05:57:14;;;;;;;7.60;3.30;;;;;;;11.79;58.13;102482.03;2081335;28;20497;-80
2022/03/16 05:58:37;;;;;;;11.05;5.57;;;;;;;11.71;58.18;102486.97;2072737;28;20101;-80
2022/03/16 05:59:58;;;;;;;9.02;4.22;;;;;;;11.71;58.31;102486.97;2070278;28;20046;-80
2022/03/16 06:01:20;;;;;;;3.53;2.10;;;;;;;11.77;57.99;102496.94;2064574;28;20054;-80
2022/03/16 06:02:42;;;;;;;6.07;3.33;;;;;;;11.79;58.07;102489.97;2065255;28;20096;-80
2022/03/16 06:04:05;;;;;;;5.07;2.55;;;;;;;11.81;57.89;102497.13;2075121;28;20045;-80
2022/03/16 06:05:28;;;;;;;4.07;1.95;;;;;;;11.77;57.91;102497.84;2082798;28;20072;-80
2022/03/16 06:06:50;;;;;;;6.68;2.63;;;;;;;11.73;57.90;102490.59;2066524;28;20077;-80
2022/03/16 06:08:13;;;;;;;5.28;2.55;;;;;;;11.70;57.90;102487.81;2067238;28;20050;-80
2022/03/16 06:09:35;;;;;;;10.18;3.08;;;;;;;11.66;57.75;102490.31;2067568;28;20068;-80
2022/03/16 06:10:59;;;;;;;;;;;;;;;11.67;57.74;102487.72;2083760;28;20075;-80
2022/03/16 06:12:20;;;;;;;6.80;3.10;;;;;;;11.65;57.83;102483.19;2080585;28;19959;-80
2022/03/16 06:13:43;;;;;;;5.85;2.78;;;;;;;11.67;57.81;102486.81;2062039;28;20116;-80
2022/03/16 06:15:06;;;;;;;8.43;3.88;;;;;;;11.72;57.80;102472.00;2074467;28;20095;-80
2022/03/16 06:16:29;;;;;;;7.30;3.83;;;;;;;11.76;57.74;102474.88;2078045;28;20651;-80
2022/03/16 06:17:52;;;;;;;5.88;2.83;;;;;;;11.79;57.64;102477.63;2064206;28;20076;-80
2022/03/16 06:19:15;;;;;;;8.35;4.72;;;;;;;11.83;57.70;102465.41;2065185;28;20061;-80
2022/03/16 06:20:37;;;;;;;10.40;5.25;;;;;;;11.89;57.68;102469.19;2058572;28;20585;-80
2022/03/16 06:21:59;;;;;;;6.60;4.00;;;;;;;12.00;57.72;102479.28;2066037;28;20127;-80
2022/03/16 06:23:21;;;;;;;7.70;4.18;;;;;;;12.13;57.72;102465.66;2066193;28;20452;-80
2022/03/16 06:24:44;;;;;;;7.40;3.70;;;;;;;12.24;57.69;102482.84;2062087;28;20045;-80
2022/03/16 06:26:09;;;;;;;7.10;3.88;;;;;;;12.31;57.69;102480.47;2073456;28;20041;-80
2022/03/16 06:27:30;;;;;;;6.75;3.25;;;;;;;12.30;57.75;102478.66;2072673;28;20467;-80